createdAt,value
2019-02-21T00:01:37.143Z,77.40
2019-02-21T00:04:22.493Z,77.50
2019-02-21T00:07:06.541Z,77.60
2019-02-21T00:09:50.297Z,77.70
2019-02-21T00:12:35.294Z,77.80
2019-02-21T00:15:18.010Z,77.80
2019-02-21T00:18:00.629Z,77.90
2019-02-21T00:20:45.981Z,80.30
2019-02-21T00:23:30.925Z,86.90
2019-02-21T00:26:16.359Z,83.00
2019-02-21T00:28:59.080Z,82.30
2019-02-21T00:31:44.204Z,84.80
2019-02-21T00:34:28.692Z,86.00
2019-02-21T00:37:11.278Z,88.80
2019-02-21T00:39:55.200Z,81.70
2019-02-21T00:42:40.523Z,78.90
2019-02-21T00:45:23.652Z,80.00
2019-02-21T00:48:06.897Z,78.70
2019-02-21T00:50:50.375Z,78.70
2019-02-21T00:53:33.270Z,78.80
2019-02-21T00:56:16.288Z,78.70
2019-02-21T00:59:01.332Z,78.80
2019-02-21T01:01:44.875Z,78.70
2019-02-21T01:04:28.349Z,79.20
2019-02-21T01:07:11.012Z,80.80
2019-02-21T01:09:54.517Z,81.10
2019-02-21T01:12:38.633Z,78.20
2019-02-21T01:15:21.785Z,78.10
2019-02-21T01:18:05.531Z,78.00
2019-02-21T01:20:48.760Z,77.90
2019-02-21T01:23:31.971Z,77.90
2019-02-21T01:26:14.960Z,77.90
2019-02-21T01:28:58.139Z,77.90
2019-02-21T01:31:43.716Z,77.60
2019-02-21T01:34:28.337Z,77.70
2019-02-21T01:37:13.882Z,77.60
2019-02-21T01:39:56.629Z,77.50
2019-02-21T01:42:39.594Z,78.40
2019-02-21T01:45:23.853Z,77.90
2019-02-21T01:48:08.664Z,78.10
2019-02-21T01:50:52.549Z,78.40
2019-02-21T01:53:35.251Z,78.50
2019-02-21T01:56:18.239Z,78.50
2019-02-21T01:59:01.295Z,78.40
2019-02-21T02:01:44.004Z,78.40
2019-02-21T02:04:28.786Z,78.30
2019-02-21T02:07:11.957Z,78.40
2019-02-21T02:09:57.396Z,78.40
2019-02-21T02:12:42.315Z,78.40
2019-02-21T02:15:27.125Z,78.50
2019-02-21T02:18:12.034Z,78.60
2019-02-21T02:20:55.160Z,78.60
2019-02-21T02:23:37.842Z,78.60
2019-02-21T02:26:20.426Z,78.90
2019-02-21T02:29:03.375Z,79.20
2019-02-21T02:31:48.066Z,79.30
2019-02-21T02:34:31.081Z,79.50
2019-02-21T02:37:13.829Z,79.50
2019-02-21T02:39:57.144Z,79.60
2019-02-21T02:42:40.126Z,79.50
2019-02-21T02:45:22.863Z,79.50
2019-02-21T02:48:06.384Z,79.70
2019-02-21T02:50:49.260Z,79.90
2019-02-21T02:53:31.731Z,80.00
2019-02-21T02:56:14.519Z,80.10
2019-02-21T02:58:57.893Z,80.30
2019-02-21T03:01:42.213Z,80.50
2019-02-21T03:04:25.074Z,80.60
2019-02-21T03:07:08.950Z,80.60
2019-02-21T03:09:55.632Z,80.40
2019-02-21T03:12:38.360Z,80.40
2019-02-21T03:15:23.784Z,80.40
2019-02-21T03:18:07.216Z,80.50
2019-02-21T03:20:50.180Z,80.50
2019-02-21T03:23:33.083Z,80.60
2019-02-21T03:26:15.862Z,80.60
2019-02-21T03:28:59.318Z,80.60
2019-02-21T03:31:54.552Z,80.70
2019-02-21T03:34:27.649Z,80.80
2019-02-21T03:37:12.854Z,80.90
2019-02-21T03:39:57.924Z,81.10
2019-02-21T03:42:44.791Z,81.30
2019-02-21T03:45:28.337Z,81.70
2019-02-21T03:48:11.362Z,81.70
2019-02-21T03:50:54.353Z,82.00
2019-02-21T03:53:40.976Z,82.30
2019-02-21T03:56:23.945Z,82.30
2019-02-21T03:59:06.582Z,82.40
2019-02-21T04:01:50.685Z,82.60
2019-02-21T04:04:33.547Z,83.00
2019-02-21T04:07:16.972Z,83.10
2019-02-21T04:10:02.003Z,83.40
2019-02-21T04:12:45.068Z,83.40
2019-02-21T04:15:28.209Z,83.50
2019-02-21T04:18:10.789Z,83.60
2019-02-21T04:20:54.186Z,83.80
2019-02-21T04:26:20.098Z,83.90
2019-02-21T04:29:04.981Z,84.00
2019-02-21T04:31:50.187Z,84.10
2019-02-21T04:34:35.679Z,84.10
2019-02-21T04:37:18.352Z,84.00
2019-02-21T04:40:01.024Z,84.00
2019-02-21T04:42:44.125Z,84.10
2019-02-21T04:45:26.818Z,84.30
2019-02-21T04:48:10.270Z,84.70
2019-02-21T04:50:54.463Z,84.90
2019-02-21T04:53:37.999Z,85.10
2019-02-21T04:56:22.539Z,85.60
2019-02-21T04:59:06.701Z,85.80
2019-02-21T05:01:51.834Z,86.20
2019-02-21T05:04:34.888Z,86.40
2019-02-21T05:07:17.981Z,86.60
2019-02-21T05:10:00.966Z,86.70
2019-02-21T05:12:44.741Z,86.60
2019-02-21T05:15:27.870Z,86.80
2019-02-21T05:18:10.537Z,86.90
2019-02-21T05:20:53.518Z,86.90
2019-02-21T05:23:36.883Z,87.00
2019-02-21T05:29:04.980Z,87.40
2019-02-21T05:32:11.505Z,87.40
2019-02-21T05:35:16.186Z,87.40
2019-02-21T05:38:07.741Z,87.50
2019-02-21T05:41:38.431Z,87.50
2019-02-21T05:44:40.197Z,87.60
2019-02-21T05:47:23.598Z,87.70
2019-02-21T05:50:31.144Z,87.70
2019-02-21T05:53:35.072Z,87.80
2019-02-21T05:56:31.958Z,88.00
2019-02-21T05:59:37.410Z,88.20
2019-02-21T06:02:21.591Z,88.20
2019-02-21T06:05:25.067Z,88.10
2019-02-21T06:08:13.937Z,88.20
2019-02-21T06:11:03.675Z,88.30
2019-02-21T06:14:28.721Z,88.30
2019-02-21T06:17:34.179Z,88.30
2019-02-21T06:20:27.007Z,88.30
2019-02-21T06:23:30.639Z,88.30
2019-02-21T06:26:35.495Z,88.30
2019-02-21T06:29:40.459Z,88.30
2019-02-21T06:32:43.461Z,88.40
2019-02-21T06:35:26.883Z,88.00
2019-02-21T06:38:10.231Z,88.10
2019-02-21T06:40:53.220Z,88.00
2019-02-21T06:43:36.574Z,87.90
2019-02-21T06:46:19.474Z,87.80
2019-02-21T06:49:02.541Z,87.40
2019-02-21T06:51:45.940Z,87.10
2019-02-21T06:54:31.960Z,86.80
2019-02-21T06:57:14.950Z,86.40
2019-02-21T06:59:58.283Z,86.00
2019-02-21T07:02:42.028Z,85.90
2019-02-21T07:05:24.826Z,85.70
2019-02-21T07:08:09.448Z,85.50
2019-02-21T07:10:52.090Z,85.20
2019-02-21T07:13:35.007Z,84.80
2019-02-21T07:16:19.323Z,84.20
2019-02-21T07:19:02.380Z,83.30
2019-02-21T07:21:45.011Z,79.20
2019-02-21T07:24:28.345Z,79.60
2019-02-21T07:27:11.812Z,80.90
2019-02-21T07:29:54.675Z,83.80
2019-02-21T07:32:37.393Z,78.30
2019-02-21T07:35:20.804Z,81.20
2019-02-21T07:38:03.720Z,73.30
2019-02-21T07:40:49.278Z,80.70
2019-02-21T07:43:32.580Z,82.40
2019-02-21T07:46:16.045Z,82.80
2019-02-21T07:48:59.488Z,69.70
2019-02-21T07:51:42.545Z,70.10
2019-02-21T07:54:25.528Z,69.10
2019-02-21T07:57:09.035Z,67.60
2019-02-21T07:59:51.822Z,67.00
2019-02-21T08:02:34.601Z,65.90
2019-02-21T08:05:17.573Z,65.50
2019-02-21T08:08:00.303Z,65.20
2019-02-21T08:10:43.350Z,64.50
2019-02-21T08:13:26.035Z,66.10
2019-02-21T08:16:09.537Z,64.50
2019-02-21T08:18:52.984Z,62.80
2019-02-21T08:21:36.935Z,59.80
2019-02-21T08:24:22.149Z,57.90
2019-02-21T08:27:05.587Z,54.70
2019-02-21T08:29:48.849Z,52.70
2019-02-21T08:32:36.072Z,50.30
2019-02-21T08:35:22.880Z,47.70
2019-02-21T08:38:06.118Z,45.60
2019-02-21T08:40:49.794Z,44.00
2019-02-21T08:43:33.169Z,41.90
2019-02-21T08:46:18.223Z,39.80
2019-02-21T08:49:00.222Z,37.70
2019-02-21T08:51:43.048Z,36.80
2019-02-21T08:54:27.376Z,35.30
2019-02-21T08:57:10.275Z,33.30
2019-02-21T08:59:53.141Z,31.50
2019-02-21T09:02:37.479Z,29.60
2019-02-21T09:05:22.700Z,28.80
2019-02-21T09:08:05.842Z,27.70
2019-02-21T09:10:50.798Z,27.50
2019-02-21T09:13:33.353Z,26.00
2019-02-21T09:16:18.015Z,25.70
2019-02-21T09:19:00.936Z,24.20
2019-02-21T09:21:43.803Z,23.00
2019-02-21T09:24:38.235Z,22.00
2019-02-21T09:27:12.802Z,21.00
2019-02-21T09:29:55.693Z,20.80
2019-02-21T09:32:42.058Z,21.30
2019-02-21T09:35:26.998Z,20.30
2019-02-21T09:38:10.648Z,19.60
2019-02-21T09:40:54.947Z,18.80
2019-02-21T09:43:37.925Z,18.70
2019-02-21T09:46:20.735Z,18.10
2019-02-21T09:49:06.447Z,17.90
2019-02-21T09:51:49.201Z,17.50
2019-02-21T09:54:31.926Z,17.00
2019-02-21T09:57:16.310Z,16.60
2019-02-21T10:00:00.829Z,16.60
2019-02-21T10:02:44.270Z,17.60
2019-02-21T10:05:29.451Z,18.70
2019-02-21T10:08:14.722Z,20.20
2019-02-21T10:10:57.726Z,22.00
2019-02-21T10:13:41.801Z,21.50
2019-02-21T10:16:26.452Z,19.50
2019-02-21T10:19:09.572Z,18.10
2019-02-21T10:21:52.613Z,17.80
2019-02-21T10:24:35.571Z,17.60
2019-02-21T10:27:19.095Z,17.20
2019-02-21T10:30:02.261Z,17.10
2019-02-21T10:32:47.842Z,17.20
2019-02-21T10:35:30.820Z,17.60
2019-02-21T10:38:14.650Z,18.50
2019-02-21T10:40:58.284Z,19.30
2019-02-21T10:43:41.529Z,20.00
2019-02-21T10:46:24.203Z,20.30
2019-02-21T10:49:07.440Z,20.70
2019-02-21T10:51:50.057Z,21.70
2019-02-21T10:54:33.820Z,21.30
2019-02-21T10:57:17.124Z,20.70
2019-02-21T11:00:02.610Z,21.90
2019-02-21T11:02:48.060Z,21.50
2019-02-21T11:05:30.903Z,21.80
2019-02-21T11:08:13.693Z,22.30
2019-02-21T11:10:57.990Z,22.80
2019-02-21T11:16:30.120Z,23.80
2019-02-21T11:19:13.412Z,24.70
2019-02-21T11:21:56.017Z,25.70
2019-02-21T11:24:40.785Z,27.00
2019-02-21T11:27:23.653Z,27.70
2019-02-21T11:30:06.492Z,26.10
2019-02-21T11:32:50.737Z,26.00
2019-02-21T11:35:35.999Z,26.60
2019-02-21T11:38:18.742Z,25.30
2019-02-21T11:41:01.605Z,24.40
2019-02-21T11:43:47.025Z,22.50
2019-02-21T11:46:31.715Z,22.10
2019-02-21T11:49:15.998Z,22.50
2019-02-21T11:52:09.841Z,23.10
2019-02-21T11:54:48.040Z,22.00
2019-02-21T11:57:30.650Z,20.40
2019-02-21T12:00:14.182Z,18.90
2019-02-21T12:02:57.472Z,17.90
2019-02-21T12:05:42.573Z,17.50
2019-02-21T12:08:29.261Z,17.50
2019-02-21T12:11:11.754Z,18.00
2019-02-21T12:13:57.039Z,18.50
2019-02-21T12:16:41.917Z,19.30
2019-02-21T12:19:24.846Z,20.80
2019-02-21T12:22:08.948Z,22.00
2019-02-21T12:24:52.331Z,22.30
2019-02-21T12:27:35.765Z,22.10
2019-02-21T12:30:19.322Z,22.30
2019-02-21T12:33:02.898Z,22.20
2019-02-21T12:35:45.406Z,22.90
2019-02-21T12:41:36.681Z,24.20
2019-02-21T12:44:21.751Z,25.40
2019-02-21T12:47:04.409Z,25.70
2019-02-21T12:49:46.964Z,26.80
2019-02-21T12:52:30.949Z,28.50
2019-02-21T12:55:14.200Z,29.40
2019-02-21T12:57:58.564Z,30.10
2019-02-21T13:03:26.282Z,29.40
2019-02-21T13:06:13.017Z,29.80
2019-02-21T13:08:56.107Z,29.20
2019-02-21T13:11:39.686Z,29.50
2019-02-21T13:14:23.673Z,30.60
2019-02-21T13:17:06.826Z,31.80
2019-02-21T13:19:50.064Z,32.70
2019-02-21T13:22:34.849Z,33.30
2019-02-21T13:25:17.852Z,32.60
2019-02-21T13:28:00.467Z,33.40
2019-02-21T13:30:44.060Z,33.70
2019-02-21T13:33:27.175Z,33.70
2019-02-21T13:36:10.357Z,33.10
2019-02-21T13:38:53.234Z,33.50
2019-02-21T13:41:36.380Z,33.50
2019-02-21T13:44:20.050Z,33.60
2019-02-21T13:47:03.528Z,34.00
2019-02-21T13:49:46.302Z,34.30
2019-02-21T13:52:30.326Z,34.50
2019-02-21T13:55:13.205Z,34.60
2019-02-21T13:57:57.186Z,34.40
2019-02-21T14:00:42.194Z,34.70
2019-02-21T14:03:27.369Z,35.40
2019-02-21T14:06:12.120Z,35.50
2019-02-21T14:08:55.308Z,35.90
2019-02-21T14:11:38.717Z,36.50
2019-02-21T14:14:23.567Z,37.30
2019-02-21T14:17:06.663Z,38.00
2019-02-21T14:19:49.637Z,38.20
2019-02-21T14:22:32.215Z,39.50
2019-02-21T14:25:17.361Z,40.30
2019-02-21T14:28:00.728Z,40.90
2019-02-21T14:30:44.190Z,41.40
2019-02-21T14:33:27.981Z,42.10
2019-02-21T14:36:16.724Z,42.80
2019-02-21T14:38:57.301Z,43.60
2019-02-21T14:41:40.478Z,44.30
2019-02-21T14:44:24.397Z,45.00
2019-02-21T14:47:08.065Z,45.50
2019-02-21T14:49:51.781Z,45.50
2019-02-21T14:52:36.976Z,46.20
2019-02-21T14:55:22.348Z,46.30
2019-02-21T14:58:05.529Z,46.50
2019-02-21T15:00:48.166Z,46.90
2019-02-21T15:03:32.825Z,47.20
2019-02-21T15:06:26.447Z,47.60
2019-02-21T15:09:00.679Z,47.70
2019-02-21T15:11:46.123Z,47.80
2019-02-21T15:14:28.981Z,47.80
2019-02-21T15:17:11.835Z,48.10
2019-02-21T15:19:54.544Z,48.30
2019-02-21T15:22:38.874Z,48.10
2019-02-21T15:25:22.168Z,48.10
2019-02-21T15:28:05.702Z,48.20
2019-02-21T15:30:50.651Z,48.40
2019-02-21T15:33:37.292Z,48.80
2019-02-21T15:36:20.820Z,48.80
2019-02-21T15:39:05.068Z,48.70
2019-02-21T15:41:50.290Z,48.30
2019-02-21T15:44:33.660Z,48.70
2019-02-21T15:47:17.236Z,48.90
2019-02-21T15:50:00.887Z,48.70
2019-02-21T15:52:43.636Z,48.70
2019-02-21T15:55:27.095Z,48.80
2019-02-21T15:58:10.570Z,48.90
2019-02-21T16:00:54.587Z,49.30
2019-02-21T16:03:37.228Z,49.60
2019-02-21T16:06:20.301Z,50.30
2019-02-21T16:09:02.901Z,50.10
2019-02-21T16:11:47.937Z,50.30
2019-02-21T16:14:32.662Z,50.50
2019-02-21T16:17:15.423Z,51.10
2019-02-21T16:20:00.395Z,51.50
2019-02-21T16:22:45.966Z,51.80
2019-02-21T16:25:31.154Z,52.10
2019-02-21T16:28:13.777Z,52.10
2019-02-21T16:30:57.142Z,52.50
2019-02-21T16:33:42.566Z,52.70
2019-02-21T16:36:28.034Z,52.90
2019-02-21T16:39:11.421Z,53.20
2019-02-21T16:41:58.198Z,53.40
2019-02-21T16:44:41.733Z,53.80
2019-02-21T16:47:25.317Z,54.30
2019-02-21T16:50:08.872Z,55.10
2019-02-21T16:52:52.491Z,55.80
2019-02-21T16:55:35.477Z,56.10
2019-02-21T16:58:18.638Z,56.40
2019-02-21T17:01:01.816Z,56.70
2019-02-21T17:03:45.507Z,56.90
2019-02-21T17:06:28.483Z,57.20
2019-02-21T17:09:13.117Z,57.50
2019-02-21T17:11:55.973Z,57.80
2019-02-21T17:14:38.697Z,58.10
2019-02-21T17:17:21.665Z,58.30
2019-02-21T17:20:06.848Z,58.50
2019-02-21T17:22:50.572Z,60.70
2019-02-21T17:25:33.295Z,67.20
2019-02-21T17:28:16.424Z,64.70
2019-02-21T17:30:59.825Z,73.00
2019-02-21T17:33:45.420Z,63.90
2019-02-21T17:36:29.243Z,58.60
2019-02-21T17:39:12.368Z,58.60
2019-02-21T17:41:57.836Z,58.40
2019-02-21T17:44:40.889Z,58.40
2019-02-21T17:47:24.683Z,58.60
2019-02-21T17:50:08.048Z,58.70
2019-02-21T17:52:50.649Z,58.60
2019-02-21T17:58:28.792Z,58.80
2019-02-21T18:01:13.650Z,58.70
2019-02-21T18:03:56.793Z,58.80
2019-02-21T18:06:39.813Z,59.20
2019-02-21T18:09:23.168Z,59.70
2019-02-21T18:12:07.841Z,60.20
2019-02-21T18:14:51.073Z,61.00
2019-02-21T18:17:36.441Z,61.50
2019-02-21T18:20:21.841Z,61.50
2019-02-21T18:23:05.072Z,61.50
2019-02-21T18:25:49.498Z,61.50
2019-02-21T18:28:33.162Z,61.60
2019-02-21T18:31:35.300Z,61.70
2019-02-21T18:34:06.760Z,62.10
2019-02-21T18:36:57.181Z,62.80
2019-02-21T18:39:40.256Z,63.60
2019-02-21T18:42:22.980Z,62.80
2019-02-21T18:45:07.249Z,62.60
2019-02-21T18:47:50.134Z,63.30
2019-02-21T18:50:38.135Z,61.40
2019-02-21T18:56:01.362Z,58.20
2019-02-21T18:58:44.889Z,58.60
2019-02-21T19:01:28.479Z,58.10
2019-02-21T19:04:11.684Z,58.60
2019-02-21T19:06:55.537Z,58.70
2019-02-21T19:09:38.309Z,59.00
2019-02-21T19:12:22.252Z,59.00
2019-02-21T19:15:05.015Z,59.00
2019-02-21T19:17:48.706Z,59.00
2019-02-21T19:20:32.005Z,59.20
2019-02-21T19:23:15.195Z,59.30
2019-02-21T19:25:58.365Z,59.50
2019-02-21T19:28:42.223Z,59.60
2019-02-21T19:31:25.395Z,59.70
2019-02-21T19:34:08.590Z,59.80
2019-02-21T19:36:52.228Z,59.80
2019-02-21T19:39:35.260Z,59.90
2019-02-21T19:42:18.084Z,59.90
2019-02-21T19:45:01.474Z,59.90
2019-02-21T19:47:44.989Z,60.00
2019-02-21T19:50:28.017Z,59.90
2019-02-21T19:53:10.821Z,60.00
2019-02-21T19:55:53.504Z,60.00
2019-02-21T19:58:38.987Z,60.20
2019-02-21T20:01:21.599Z,60.20
2019-02-21T20:04:04.787Z,60.40
2019-02-21T20:06:47.819Z,60.70
2019-02-21T20:09:30.814Z,60.90
2019-02-21T20:12:16.308Z,61.10
2019-02-21T20:14:58.976Z,61.30
2019-02-21T20:17:43.804Z,61.30
2019-02-21T20:20:29.345Z,61.50
2019-02-21T20:23:12.896Z,61.60
2019-02-21T20:25:56.675Z,61.80
2019-02-21T20:28:39.711Z,61.90
2019-02-21T20:31:22.989Z,61.90
2019-02-21T20:34:05.744Z,62.00
2019-02-21T20:36:50.934Z,62.10
2019-02-21T20:39:33.151Z,62.20
2019-02-21T20:42:16.355Z,62.40
2019-02-21T20:44:59.547Z,62.40
2019-02-21T20:47:43.467Z,62.60
2019-02-21T20:50:26.495Z,62.80
2019-02-21T20:53:09.371Z,62.90
2019-02-21T20:55:52.033Z,62.80
2019-02-21T20:58:35.688Z,62.80
2019-02-21T21:01:20.568Z,62.90
2019-02-21T21:04:04.091Z,62.90
2019-02-21T21:06:50.873Z,63.70
2019-02-21T21:09:43.705Z,63.10
2019-02-21T21:12:27.117Z,63.20
2019-02-21T21:15:11.690Z,63.30
2019-02-21T21:17:43.446Z,63.40
2019-02-21T21:20:26.784Z,63.60
2019-02-21T21:23:12.094Z,63.60
2019-02-21T21:25:56.654Z,63.50
2019-02-21T21:28:41.621Z,63.30
2019-02-21T21:31:24.424Z,63.40
2019-02-21T21:34:07.054Z,63.40
2019-02-21T21:36:51.994Z,63.40
2019-02-21T21:39:37.454Z,63.40
2019-02-21T21:42:20.098Z,63.60
2019-02-21T21:45:05.560Z,63.90
2019-02-21T21:47:48.699Z,63.90
2019-02-21T21:50:32.354Z,63.80
2019-02-21T21:53:17.524Z,63.60
2019-02-21T21:56:00.485Z,63.50
2019-02-21T21:58:45.281Z,63.30
2019-02-21T22:01:28.866Z,63.40
2019-02-21T22:04:11.877Z,63.50
2019-02-21T22:06:54.906Z,63.60
2019-02-21T22:09:38.254Z,63.60
2019-02-21T22:12:21.467Z,63.80
2019-02-21T22:15:05.068Z,63.90
2019-02-21T22:17:49.714Z,64.00
2019-02-21T22:20:32.353Z,63.70
2019-02-21T22:23:15.171Z,63.40
2019-02-21T22:26:00.481Z,63.20
2019-02-21T22:28:43.862Z,62.40
2019-02-21T22:31:27.039Z,99.90
2019-02-21T22:34:10.534Z,63.10
2019-02-21T22:36:54.394Z,63.30
2019-02-21T22:39:41.068Z,63.60
2019-02-21T22:42:25.705Z,63.80
2019-02-21T22:45:11.216Z,64.00
2019-02-21T22:47:54.670Z,64.20
2019-02-21T22:50:38.262Z,64.10
2019-02-21T22:53:21.797Z,63.90
2019-02-21T22:56:07.119Z,63.90
2019-02-21T22:58:51.889Z,63.80
2019-02-21T23:01:35.286Z,63.70
2019-02-21T23:04:18.765Z,63.60
2019-02-21T23:07:01.461Z,63.60
2019-02-21T23:09:44.388Z,63.60
2019-02-21T23:12:28.853Z,63.60
2019-02-21T23:15:12.460Z,63.60
2019-02-21T23:17:57.266Z,63.60
2019-02-21T23:20:40.026Z,63.60
2019-02-21T23:23:23.296Z,63.80
2019-02-21T23:26:05.918Z,64.10
2019-02-21T23:28:49.277Z,64.40
2019-02-21T23:31:32.745Z,64.70
2019-02-21T23:34:36.677Z,64.80
2019-02-21T23:37:20.236Z,64.80
2019-02-21T23:40:03.806Z,64.90
2019-02-21T23:42:46.784Z,64.90
2019-02-21T23:45:32.010Z,64.80
2019-02-21T23:48:15.462Z,64.70
2019-02-21T23:50:59.881Z,64.60
2019-02-21T23:53:43.331Z,64.40
2019-02-21T23:56:28.022Z,64.40
2019-02-21T23:59:10.724Z,64.40
